Portada
METAR-TAF:

METAR-TAF

Aeroports :

Tak, Tailàndia

latitud: 16-53N, longitud: 099-09E, altitud: 121 m

Observació

L'informe es va fer fa 11 hores i 29 minuts, a les 11:00 UTC
Temperatura 28°C
Humitat 66%
Pressió
Visibilitat: 8000 m
Núvols disperses a una alçada de 2600 ft

METAR: VTPT 121100Z /////KT 8000 SCT026 28/21 Q//// NOSIG

Hora: 05:29 (22:29 UTC)

Pronòstic

L'informe es va fer fa 5 hores i 29 minuts, a les 17:00 UTC
Pronòstic vàlid del 12 a les 18 UTC al 13 a les 18 UTC
Vent 5 kt del Sud/Sud-Est
Visibilitat: 8000 m
Núvols disperses a una alçada de 2600 ft
Temporalment
l' 13 a les 05 UTC al 13 a les 11 UTC
Vent 15 kt del Oest amb ràfegues de 25 kt
Visibilitat: 4000 m
Escasses núvols a una alçada de 1800 ft, Cumulonimbus.
Cel ennuvolat a una alçada de 2600 ft
tempesta, pluja

TAF: VTPT 121700Z 1218/1318 16005KT 8000 SCT026 TEMPO 1305/1311 27015G25KT 4000 TSRA FEW018CB BKN026

Observacions i pronòstics meteorològics de més de 4000 aeroports (METAR i TAF).

Les estacions disponibles són els punts grocs i vermells al mapa.

Posi el ratolí al punt desitjat per veure el nom de l'estació.

Feu clic per veure les observacions i els pronòstics meteorològics.

Per canviar el mapa: feu clic els botons verds amb una creu de color negre per apropar; al botó verd amb un guió per allunyar la imatge; o en les fletxes verdes per a mapes adjacents.


METAR-TAF: